sensor_id;sensor_type;location;lat;lon;timestamp;P1;durP1;ratioP1;P2;durP2;ratioP2
8913;SDS011;4492;48.736;9.092;2022-12-28T00:01:15;5.93;;;3.30;;
8913;SDS011;4492;48.736;9.092;2022-12-28T00:03:49;6.03;;;2.90;;
8913;SDS011;4492;48.736;9.092;2022-12-28T00:06:16;9.13;;;3.37;;
8913;SDS011;4492;48.736;9.092;2022-12-28T00:08:43;7.03;;;3.67;;
8913;SDS011;4492;48.736;9.092;2022-12-28T00:11:14;6.17;;;3.37;;
8913;SDS011;4492;48.736;9.092;2022-12-28T00:13:41;8.50;;;3.70;;
8913;SDS011;4492;48.736;9.092;2022-12-28T00:16:12;5.53;;;3.27;;
8913;SDS011;4492;48.736;9.092;2022-12-28T00:18:46;6.17;;;3.00;;
8913;SDS011;4492;48.736;9.092;2022-12-28T00:21:11;5.83;;;3.40;;
8913;SDS011;4492;48.736;9.092;2022-12-28T00:23:37;6.17;;;2.87;;
8913;SDS011;4492;48.736;9.092;2022-12-28T00:26:10;4.37;;;2.60;;
8913;SDS011;4492;48.736;9.092;2022-12-28T00:28:37;3.80;;;2.20;;
8913;SDS011;4492;48.736;9.092;2022-12-28T00:31:03;5.43;;;2.43;;
8913;SDS011;4492;48.736;9.092;2022-12-28T00:33:29;4.10;;;2.30;;
8913;SDS011;4492;48.736;9.092;2022-12-28T00:35:56;4.07;;;2.17;;
8913;SDS011;4492;48.736;9.092;2022-12-28T00:38:24;3.00;;;1.83;;
8913;SDS011;4492;48.736;9.092;2022-12-28T00:40:50;6.10;;;2.30;;
8913;SDS011;4492;48.736;9.092;2022-12-28T00:43:15;4.60;;;2.13;;
8913;SDS011;4492;48.736;9.092;2022-12-28T00:45:45;4.27;;;2.27;;
8913;SDS011;4492;48.736;9.092;2022-12-28T00:48:11;5.43;;;2.50;;
8913;SDS011;4492;48.736;9.092;2022-12-28T00:50:37;3.97;;;2.30;;
8913;SDS011;4492;48.736;9.092;2022-12-28T00:53:03;3.37;;;2.57;;
8913;SDS011;4492;48.736;9.092;2022-12-28T00:55:28;6.93;;;2.70;;
8913;SDS011;4492;48.736;9.092;2022-12-28T00:57:57;5.30;;;2.43;;
8913;SDS011;4492;48.736;9.092;2022-12-28T01:00:23;3.43;;;2.40;;
8913;SDS011;4492;48.736;9.092;2022-12-28T01:02:49;3.43;;;2.50;;
8913;SDS011;4492;48.736;9.092;2022-12-28T01:05:14;4.13;;;2.33;;
8913;SDS011;4492;48.736;9.092;2022-12-28T01:07:40;5.37;;;2.53;;
8913;SDS011;4492;48.736;9.092;2022-12-28T01:10:09;8.30;;;2.40;;
8913;SDS011;4492;48.736;9.092;2022-12-28T01:12:35;3.83;;;2.30;;
8913;SDS011;4492;48.736;9.092;2022-12-28T01:15:01;7.80;;;2.40;;
8913;SDS011;4492;48.736;9.092;2022-12-28T01:17:27;4.80;;;2.30;;
8913;SDS011;4492;48.736;9.092;2022-12-28T01:19:53;2.60;;;2.40;;
8913;SDS011;4492;48.736;9.092;2022-12-28T01:22:19;5.20;;;2.60;;
8913;SDS011;4492;48.736;9.092;2022-12-28T01:24:45;5.73;;;2.80;;
8913;SDS011;4492;48.736;9.092;2022-12-28T01:27:11;4.90;;;2.40;;
8913;SDS011;4492;48.736;9.092;2022-12-28T01:29:36;2.63;;;2.43;;
8913;SDS011;4492;48.736;9.092;2022-12-28T01:32:02;4.20;;;2.43;;
8913;SDS011;4492;48.736;9.092;2022-12-28T01:34:27;5.13;;;2.53;;
8913;SDS011;4492;48.736;9.092;2022-12-28T01:36:53;3.30;;;2.43;;
8913;SDS011;4492;48.736;9.092;2022-12-28T01:39:19;2.70;;;2.20;;
8913;SDS011;4492;48.736;9.092;2022-12-28T01:41:44;3.67;;;2.40;;
8913;SDS011;4492;48.736;9.092;2022-12-28T01:49:11;2.40;;;1.60;;
8913;SDS011;4492;48.736;9.092;2022-12-28T01:54:49;4.83;;;2.00;;
8913;SDS011;4492;48.736;9.092;2022-12-28T01:57:15;3.60;;;1.63;;
8913;SDS011;4492;48.736;9.092;2022-12-28T01:59:45;2.87;;;1.83;;
8913;SDS011;4492;48.736;9.092;2022-12-28T02:02:15;3.77;;;1.90;;
8913;SDS011;4492;48.736;9.092;2022-12-28T02:04:41;3.13;;;1.20;;
8913;SDS011;4492;48.736;9.092;2022-12-28T02:07:07;1.77;;;1.47;;
8913;SDS011;4492;48.736;9.092;2022-12-28T02:09:37;2.17;;;1.37;;
8913;SDS011;4492;48.736;9.092;2022-12-28T02:12:05;2.20;;;1.50;;
8913;SDS011;4492;48.736;9.092;2022-12-28T02:14:33;3.37;;;1.40;;
8913;SDS011;4492;48.736;9.092;2022-12-28T02:16:59;2.43;;;1.20;;
8913;SDS011;4492;48.736;9.092;2022-12-28T02:19:30;3.93;;;1.50;;
8913;SDS011;4492;48.736;9.092;2022-12-28T02:27:53;3.17;;;1.37;;
8913;SDS011;4492;48.736;9.092;2022-12-28T02:30:24;2.20;;;1.50;;
8913;SDS011;4492;48.736;9.092;2022-12-28T02:35:44;2.57;;;1.43;;
8913;SDS011;4492;48.736;9.092;2022-12-28T02:41:13;4.00;;;1.50;;
8913;SDS011;4492;48.736;9.092;2022-12-28T02:43:42;4.83;;;0.77;;
8913;SDS011;4492;48.736;9.092;2022-12-28T02:46:22;1.57;;;0.87;;
8913;SDS011;4492;48.736;9.092;2022-12-28T02:49:18;3.43;;;1.10;;
8913;SDS011;4492;48.736;9.092;2022-12-28T02:52:06;1.30;;;0.90;;
8913;SDS011;4492;48.736;9.092;2022-12-28T03:00:28;1.37;;;1.03;;
8913;SDS011;4492;48.736;9.092;2022-12-28T03:03:08;1.60;;;1.00;;
8913;SDS011;4492;48.736;9.092;2022-12-28T03:08:49;1.80;;;1.10;;
8913;SDS011;4492;48.736;9.092;2022-12-28T03:11:43;1.43;;;0.90;;
8913;SDS011;4492;48.736;9.092;2022-12-28T03:14:16;0.90;;;0.80;;
8913;SDS011;4492;48.736;9.092;2022-12-28T03:16:48;1.60;;;0.90;;
8913;SDS011;4492;48.736;9.092;2022-12-28T03:19:39;5.27;;;1.00;;
8913;SDS011;4492;48.736;9.092;2022-12-28T03:22:26;2.60;;;0.93;;
8913;SDS011;4492;48.736;9.092;2022-12-28T03:25:15;2.00;;;1.00;;
8913;SDS011;4492;48.736;9.092;2022-12-28T03:28:04;2.97;;;1.07;;
8913;SDS011;4492;48.736;9.092;2022-12-28T03:30:51;1.80;;;1.03;;
8913;SDS011;4492;48.736;9.092;2022-12-28T03:33:31;2.17;;;0.73;;
8913;SDS011;4492;48.736;9.092;2022-12-28T03:41:28;2.30;;;0.90;;
8913;SDS011;4492;48.736;9.092;2022-12-28T03:43:59;3.13;;;1.17;;
8913;SDS011;4492;48.736;9.092;2022-12-28T03:46:35;1.97;;;1.20;;
8913;SDS011;4492;48.736;9.092;2022-12-28T03:49:19;1.43;;;1.07;;
8913;SDS011;4492;48.736;9.092;2022-12-28T03:51:45;2.00;;;1.40;;
8913;SDS011;4492;48.736;9.092;2022-12-28T03:54:16;3.30;;;1.43;;
8913;SDS011;4492;48.736;9.092;2022-12-28T03:56:47;2.63;;;1.10;;
8913;SDS011;4492;48.736;9.092;2022-12-28T03:59:14;1.43;;;1.10;;
8913;SDS011;4492;48.736;9.092;2022-12-28T04:01:40;1.67;;;1.10;;
8913;SDS011;4492;48.736;9.092;2022-12-28T04:04:06;2.50;;;1.07;;
8913;SDS011;4492;48.736;9.092;2022-12-28T04:06:31;1.90;;;1.10;;
8913;SDS011;4492;48.736;9.092;2022-12-28T04:08:57;1.33;;;1.17;;
8913;SDS011;4492;48.736;9.092;2022-12-28T04:11:22;1.83;;;1.37;;
8913;SDS011;4492;48.736;9.092;2022-12-28T04:13:48;2.60;;;1.30;;
8913;SDS011;4492;48.736;9.092;2022-12-28T04:16:14;1.20;;;1.00;;
8913;SDS011;4492;48.736;9.092;2022-12-28T04:18:39;1.97;;;1.33;;
8913;SDS011;4492;48.736;9.092;2022-12-28T04:21:06;1.43;;;1.07;;
8913;SDS011;4492;48.736;9.092;2022-12-28T04:23:32;4.93;;;1.33;;
8913;SDS011;4492;48.736;9.092;2022-12-28T04:26:05;1.70;;;1.20;;
8913;SDS011;4492;48.736;9.092;2022-12-28T04:28:36;1.97;;;1.33;;
8913;SDS011;4492;48.736;9.092;2022-12-28T04:31:03;1.10;;;1.00;;
8913;SDS011;4492;48.736;9.092;2022-12-28T04:33:37;1.93;;;1.20;;
8913;SDS011;4492;48.736;9.092;2022-12-28T04:36:07;2.33;;;1.20;;
8913;SDS011;4492;48.736;9.092;2022-12-28T04:38:36;2.07;;;1.03;;
8913;SDS011;4492;48.736;9.092;2022-12-28T04:41:02;1.10;;;1.00;;
8913;SDS011;4492;48.736;9.092;2022-12-28T04:43:29;2.33;;;1.00;;
8913;SDS011;4492;48.736;9.092;2022-12-28T04:45:58;3.53;;;1.03;;
8913;SDS011;4492;48.736;9.092;2022-12-28T04:48:30;1.50;;;1.20;;
8913;SDS011;4492;48.736;9.092;2022-12-28T04:50:56;2.23;;;1.20;;
8913;SDS011;4492;48.736;9.092;2022-12-28T04:53:22;1.20;;;1.00;;
8913;SDS011;4492;48.736;9.092;2022-12-28T04:55:48;2.63;;;1.17;;
8913;SDS011;4492;48.736;9.092;2022-12-28T04:58:14;1.90;;;1.00;;
8913;SDS011;4492;48.736;9.092;2022-12-28T05:00:40;3.17;;;1.17;;
8913;SDS011;4492;48.736;9.092;2022-12-28T05:03:06;2.93;;;1.03;;
8913;SDS011;4492;48.736;9.092;2022-12-28T05:05:32;4.13;;;1.50;;
8913;SDS011;4492;48.736;9.092;2022-12-28T05:08:00;2.30;;;1.20;;
8913;SDS011;4492;48.736;9.092;2022-12-28T05:10:26;3.03;;;0.93;;
8913;SDS011;4492;48.736;9.092;2022-12-28T05:12:53;1.60;;;1.17;;
8913;SDS011;4492;48.736;9.092;2022-12-28T05:15:20;1.30;;;1.20;;
8913;SDS011;4492;48.736;9.092;2022-12-28T05:17:46;1.67;;;1.20;;
8913;SDS011;4492;48.736;9.092;2022-12-28T05:20:11;3.83;;;1.20;;
8913;SDS011;4492;48.736;9.092;2022-12-28T05:22:37;1.77;;;0.80;;
8913;SDS011;4492;48.736;9.092;2022-12-28T05:25:03;2.53;;;1.00;;
8913;SDS011;4492;48.736;9.092;2022-12-28T05:27:29;1.17;;;1.07;;
8913;SDS011;4492;48.736;9.092;2022-12-28T05:29:54;2.60;;;0.87;;
8913;SDS011;4492;48.736;9.092;2022-12-28T05:32:20;3.37;;;0.80;;
8913;SDS011;4492;48.736;9.092;2022-12-28T05:34:45;1.57;;;1.20;;
8913;SDS011;4492;48.736;9.092;2022-12-28T05:37:11;2.57;;;1.10;;
8913;SDS011;4492;48.736;9.092;2022-12-28T05:39:36;2.13;;;1.20;;
8913;SDS011;4492;48.736;9.092;2022-12-28T05:42:02;3.33;;;1.23;;
8913;SDS011;4492;48.736;9.092;2022-12-28T05:44:28;2.40;;;1.10;;
8913;SDS011;4492;48.736;9.092;2022-12-28T05:46:54;1.10;;;0.87;;
8913;SDS011;4492;48.736;9.092;2022-12-28T05:49:20;3.47;;;1.20;;
8913;SDS011;4492;48.736;9.092;2022-12-28T05:51:47;1.20;;;1.10;;
8913;SDS011;4492;48.736;9.092;2022-12-28T05:54:16;2.83;;;1.10;;
8913;SDS011;4492;48.736;9.092;2022-12-28T05:56:42;1.63;;;0.87;;
8913;SDS011;4492;48.736;9.092;2022-12-28T05:59:08;1.27;;;0.73;;
8913;SDS011;4492;48.736;9.092;2022-12-28T06:01:36;2.97;;;1.10;;
8913;SDS011;4492;48.736;9.092;2022-12-28T06:04:04;2.87;;;1.13;;
8913;SDS011;4492;48.736;9.092;2022-12-28T06:06:32;1.27;;;1.07;;
8913;SDS011;4492;48.736;9.092;2022-12-28T06:08:58;3.60;;;0.90;;
8913;SDS011;4492;48.736;9.092;2022-12-28T06:11:26;1.47;;;1.00;;
8913;SDS011;4492;48.736;9.092;2022-12-28T06:13:53;2.90;;;1.10;;
8913;SDS011;4492;48.736;9.092;2022-12-28T06:16:20;1.63;;;0.90;;
8913;SDS011;4492;48.736;9.092;2022-12-28T06:18:50;2.73;;;1.07;;
8913;SDS011;4492;48.736;9.092;2022-12-28T06:21:20;0.70;;;0.63;;
8913;SDS011;4492;48.736;9.092;2022-12-28T06:23:46;1.67;;;0.70;;
8913;SDS011;4492;48.736;9.092;2022-12-28T06:26:13;1.37;;;0.97;;
8913;SDS011;4492;48.736;9.092;2022-12-28T06:28:41;1.00;;;0.70;;
8913;SDS011;4492;48.736;9.092;2022-12-28T06:31:09;5.90;;;0.90;;
8913;SDS011;4492;48.736;9.092;2022-12-28T06:33:40;1.53;;;0.80;;
8913;SDS011;4492;48.736;9.092;2022-12-28T06:36:13;1.67;;;0.70;;
8913;SDS011;4492;48.736;9.092;2022-12-28T06:38:44;1.83;;;0.80;;
8913;SDS011;4492;48.736;9.092;2022-12-28T06:41:10;1.27;;;1.00;;
8913;SDS011;4492;48.736;9.092;2022-12-28T06:43:38;3.43;;;0.97;;
8913;SDS011;4492;48.736;9.092;2022-12-28T06:46:05;1.53;;;1.00;;
8913;SDS011;4492;48.736;9.092;2022-12-28T06:48:31;2.33;;;0.90;;
8913;SDS011;4492;48.736;9.092;2022-12-28T06:50:59;2.87;;;0.93;;
8913;SDS011;4492;48.736;9.092;2022-12-28T06:53:31;4.20;;;1.50;;
8913;SDS011;4492;48.736;9.092;2022-12-28T06:56:02;2.27;;;1.00;;
8913;SDS011;4492;48.736;9.092;2022-12-28T06:58:29;1.33;;;1.07;;
8913;SDS011;4492;48.736;9.092;2022-12-28T07:00:56;2.20;;;1.00;;
8913;SDS011;4492;48.736;9.092;2022-12-28T07:03:28;4.17;;;1.20;;
8913;SDS011;4492;48.736;9.092;2022-12-28T07:05:54;3.07;;;1.23;;
8913;SDS011;4492;48.736;9.092;2022-12-28T07:08:24;3.07;;;1.77;;
8913;SDS011;4492;48.736;9.092;2022-12-28T07:10:50;2.87;;;1.00;;
8913;SDS011;4492;48.736;9.092;2022-12-28T07:13:15;1.60;;;1.13;;
8913;SDS011;4492;48.736;9.092;2022-12-28T07:15:41;1.70;;;1.07;;
8913;SDS011;4492;48.736;9.092;2022-12-28T07:18:06;2.77;;;1.40;;
8913;SDS011;4492;48.736;9.092;2022-12-28T07:20:32;2.30;;;1.20;;
8913;SDS011;4492;48.736;9.092;2022-12-28T07:22:57;1.67;;;1.40;;
8913;SDS011;4492;48.736;9.092;2022-12-28T07:25:23;5.23;;;1.40;;
8913;SDS011;4492;48.736;9.092;2022-12-28T07:27:48;2.27;;;1.10;;
8913;SDS011;4492;48.736;9.092;2022-12-28T07:30:14;1.73;;;1.13;;
8913;SDS011;4492;48.736;9.092;2022-12-28T07:32:40;2.67;;;1.30;;
8913;SDS011;4492;48.736;9.092;2022-12-28T07:35:05;3.77;;;1.50;;
8913;SDS011;4492;48.736;9.092;2022-12-28T07:37:31;2.37;;;1.30;;
8913;SDS011;4492;48.736;9.092;2022-12-28T07:39:57;4.07;;;1.40;;
8913;SDS011;4492;48.736;9.092;2022-12-28T07:42:23;2.70;;;1.27;;
8913;SDS011;4492;48.736;9.092;2022-12-28T07:44:48;1.23;;;0.97;;
8913;SDS011;4492;48.736;9.092;2022-12-28T07:47:14;2.23;;;1.50;;
8913;SDS011;4492;48.736;9.092;2022-12-28T07:49:40;2.33;;;1.20;;
8913;SDS011;4492;48.736;9.092;2022-12-28T07:52:05;2.67;;;1.20;;
8913;SDS011;4492;48.736;9.092;2022-12-28T07:54:31;1.90;;;1.17;;
8913;SDS011;4492;48.736;9.092;2022-12-28T07:56:57;3.27;;;1.33;;
8913;SDS011;4492;48.736;9.092;2022-12-28T07:59:23;3.30;;;1.03;;
8913;SDS011;4492;48.736;9.092;2022-12-28T08:01:49;3.13;;;1.30;;
8913;SDS011;4492;48.736;9.092;2022-12-28T08:04:15;2.07;;;1.40;;
8913;SDS011;4492;48.736;9.092;2022-12-28T08:06:42;3.17;;;1.10;;
8913;SDS011;4492;48.736;9.092;2022-12-28T08:09:09;2.03;;;1.50;;
8913;SDS011;4492;48.736;9.092;2022-12-28T08:11:38;2.03;;;0.83;;
8913;SDS011;4492;48.736;9.092;2022-12-28T08:14:05;2.03;;;1.10;;
8913;SDS011;4492;48.736;9.092;2022-12-28T08:16:33;2.07;;;1.00;;
8913;SDS011;4492;48.736;9.092;2022-12-28T08:19:00;1.60;;;0.80;;
8913;SDS011;4492;48.736;9.092;2022-12-28T08:21:28;1.40;;;1.00;;
8913;SDS011;4492;48.736;9.092;2022-12-28T08:23:55;1.63;;;0.80;;
8913;SDS011;4492;48.736;9.092;2022-12-28T08:28:52;1.37;;;0.73;;
8913;SDS011;4492;48.736;9.092;2022-12-28T08:31:21;2.70;;;1.40;;
8913;SDS011;4492;48.736;9.092;2022-12-28T08:33:50;2.77;;;1.00;;
8913;SDS011;4492;48.736;9.092;2022-12-28T08:36:17;1.70;;;0.80;;
8913;SDS011;4492;48.736;9.092;2022-12-28T08:38:43;2.57;;;1.03;;
8913;SDS011;4492;48.736;9.092;2022-12-28T08:41:10;6.00;;;1.10;;
8913;SDS011;4492;48.736;9.092;2022-12-28T08:43:38;1.37;;;1.00;;
8913;SDS011;4492;48.736;9.092;2022-12-28T08:48:32;2.37;;;0.87;;
8913;SDS011;4492;48.736;9.092;2022-12-28T08:51:02;2.83;;;1.17;;
8913;SDS011;4492;48.736;9.092;2022-12-28T08:53:30;2.07;;;1.10;;
8913;SDS011;4492;48.736;9.092;2022-12-28T08:56:02;1.03;;;0.97;;
8913;SDS011;4492;48.736;9.092;2022-12-28T08:58:37;1.07;;;0.90;;
8913;SDS011;4492;48.736;9.092;2022-12-28T09:01:04;1.97;;;0.97;;
8913;SDS011;4492;48.736;9.092;2022-12-28T09:03:33;1.07;;;0.90;;
8913;SDS011;4492;48.736;9.092;2022-12-28T09:06:01;2.50;;;1.00;;
8913;SDS011;4492;48.736;9.092;2022-12-28T09:08:28;1.67;;;0.90;;
8913;SDS011;4492;48.736;9.092;2022-12-28T09:10:53;1.90;;;1.00;;
8913;SDS011;4492;48.736;9.092;2022-12-28T09:13:26;1.13;;;0.83;;
8913;SDS011;4492;48.736;9.092;2022-12-28T09:16:00;0.63;;;0.63;;
8913;SDS011;4492;48.736;9.092;2022-12-28T09:18:31;1.20;;;0.80;;
8913;SDS011;4492;48.736;9.092;2022-12-28T09:21:02;2.30;;;1.10;;
8913;SDS011;4492;48.736;9.092;2022-12-28T09:23:33;1.93;;;0.90;;
8913;SDS011;4492;48.736;9.092;2022-12-28T09:26:03;2.67;;;0.63;;
8913;SDS011;4492;48.736;9.092;2022-12-28T09:28:35;1.80;;;0.60;;
8913;SDS011;4492;48.736;9.092;2022-12-28T09:31:05;1.50;;;0.67;;
8913;SDS011;4492;48.736;9.092;2022-12-28T09:33:32;2.13;;;0.93;;
8913;SDS011;4492;48.736;9.092;2022-12-28T09:36:16;1.60;;;0.97;;
8913;SDS011;4492;48.736;9.092;2022-12-28T09:38:47;0.90;;;0.70;;
8913;SDS011;4492;48.736;9.092;2022-12-28T09:43:42;1.07;;;0.80;;
8913;SDS011;4492;48.736;9.092;2022-12-28T09:46:08;2.30;;;0.77;;
8913;SDS011;4492;48.736;9.092;2022-12-28T09:48:35;3.43;;;0.80;;
8913;SDS011;4492;48.736;9.092;2022-12-28T09:51:03;1.97;;;0.80;;
8913;SDS011;4492;48.736;9.092;2022-12-28T09:53:29;0.90;;;0.60;;
8913;SDS011;4492;48.736;9.092;2022-12-28T09:58:48;1.47;;;0.70;;
8913;SDS011;4492;48.736;9.092;2022-12-28T10:01:15;1.43;;;0.60;;
8913;SDS011;4492;48.736;9.092;2022-12-28T10:03:42;1.27;;;0.57;;
8913;SDS011;4492;48.736;9.092;2022-12-28T10:08:36;1.00;;;0.60;;
8913;SDS011;4492;48.736;9.092;2022-12-28T10:11:06;2.33;;;0.60;;
8913;SDS011;4492;48.736;9.092;2022-12-28T10:13:36;2.30;;;0.60;;
8913;SDS011;4492;48.736;9.092;2022-12-28T10:16:03;0.53;;;0.43;;
8913;SDS011;4492;48.736;9.092;2022-12-28T10:18:30;2.40;;;0.40;;
8913;SDS011;4492;48.736;9.092;2022-12-28T10:20:57;0.90;;;0.70;;
8913;SDS011;4492;48.736;9.092;2022-12-28T10:23:24;0.73;;;0.70;;
8913;SDS011;4492;48.736;9.092;2022-12-28T10:25:52;2.20;;;0.50;;
8913;SDS011;4492;48.736;9.092;2022-12-28T10:28:21;1.70;;;1.00;;
8913;SDS011;4492;48.736;9.092;2022-12-28T10:31:05;0.63;;;0.53;;
8913;SDS011;4492;48.736;9.092;2022-12-28T10:33:36;0.90;;;0.60;;
8913;SDS011;4492;48.736;9.092;2022-12-28T10:36:04;1.37;;;0.70;;
8913;SDS011;4492;48.736;9.092;2022-12-28T10:38:30;1.23;;;0.60;;
8913;SDS011;4492;48.736;9.092;2022-12-28T10:43:32;0.70;;;0.40;;
8913;SDS011;4492;48.736;9.092;2022-12-28T10:45:59;1.00;;;0.47;;
8913;SDS011;4492;48.736;9.092;2022-12-28T10:48:29;1.10;;;0.70;;
8913;SDS011;4492;48.736;9.092;2022-12-28T10:51:08;0.60;;;0.60;;
8913;SDS011;4492;48.736;9.092;2022-12-28T10:53:41;1.23;;;0.53;;
8913;SDS011;4492;48.736;9.092;2022-12-28T10:58:38;1.97;;;0.80;;
8913;SDS011;4492;48.736;9.092;2022-12-28T11:03:37;2.00;;;0.87;;
8913;SDS011;4492;48.736;9.092;2022-12-28T11:06:24;1.50;;;0.80;;
8913;SDS011;4492;48.736;9.092;2022-12-28T11:11:50;1.83;;;0.80;;
8913;SDS011;4492;48.736;9.092;2022-12-28T11:14:33;1.20;;;0.67;;
8913;SDS011;4492;48.736;9.092;2022-12-28T11:17:14;1.23;;;0.60;;
8913;SDS011;4492;48.736;9.092;2022-12-28T11:19:47;0.60;;;0.60;;
8913;SDS011;4492;48.736;9.092;2022-12-28T11:22:16;1.30;;;0.67;;
8913;SDS011;4492;48.736;9.092;2022-12-28T11:24:46;1.13;;;0.83;;
8913;SDS011;4492;48.736;9.092;2022-12-28T11:27:12;3.53;;;0.60;;
8913;SDS011;4492;48.736;9.092;2022-12-28T11:29:46;3.07;;;1.00;;
8913;SDS011;4492;48.736;9.092;2022-12-28T11:32:16;2.23;;;0.60;;
8913;SDS011;4492;48.736;9.092;2022-12-28T11:34:48;1.50;;;0.53;;
8913;SDS011;4492;48.736;9.092;2022-12-28T11:37:15;0.93;;;0.43;;
8913;SDS011;4492;48.736;9.092;2022-12-28T11:39:42;2.07;;;0.87;;
8913;SDS011;4492;48.736;9.092;2022-12-28T11:45:38;1.67;;;0.70;;
8913;SDS011;4492;48.736;9.092;2022-12-28T11:51:03;2.13;;;0.60;;
8913;SDS011;4492;48.736;9.092;2022-12-28T12:00:54;1.60;;;0.60;;
8913;SDS011;4492;48.736;9.092;2022-12-28T12:03:20;2.10;;;0.70;;
8913;SDS011;4492;48.736;9.092;2022-12-28T12:11:51;1.00;;;0.53;;
8913;SDS011;4492;48.736;9.092;2022-12-28T12:14:22;3.00;;;0.63;;
8913;SDS011;4492;48.736;9.092;2022-12-28T12:16:54;1.13;;;0.60;;
8913;SDS011;4492;48.736;9.092;2022-12-28T12:19:36;1.07;;;0.90;;
8913;SDS011;4492;48.736;9.092;2022-12-28T12:22:17;3.13;;;0.83;;
8913;SDS011;4492;48.736;9.092;2022-12-28T12:27:40;1.43;;;0.63;;
8913;SDS011;4492;48.736;9.092;2022-12-28T12:30:17;1.43;;;0.90;;
8913;SDS011;4492;48.736;9.092;2022-12-28T12:32:46;3.20;;;0.77;;
8913;SDS011;4492;48.736;9.092;2022-12-28T12:35:26;1.47;;;0.50;;
8913;SDS011;4492;48.736;9.092;2022-12-28T12:43:26;2.00;;;0.60;;
8913;SDS011;4492;48.736;9.092;2022-12-28T12:48:59;3.60;;;0.90;;
8913;SDS011;4492;48.736;9.092;2022-12-28T12:57:59;2.93;;;0.80;;
8913;SDS011;4492;48.736;9.092;2022-12-28T13:06:00;1.77;;;0.70;;
8913;SDS011;4492;48.736;9.092;2022-12-28T13:08:35;2.80;;;0.70;;
8913;SDS011;4492;48.736;9.092;2022-12-28T13:11:08;2.13;;;0.70;;
8913;SDS011;4492;48.736;9.092;2022-12-28T13:13:37;0.90;;;0.67;;
8913;SDS011;4492;48.736;9.092;2022-12-28T13:16:15;1.40;;;0.77;;
8913;SDS011;4492;48.736;9.092;2022-12-28T13:18:52;1.00;;;0.80;;
8913;SDS011;4492;48.736;9.092;2022-12-28T13:21:25;1.17;;;0.73;;
8913;SDS011;4492;48.736;9.092;2022-12-28T13:23:53;2.80;;;1.07;;
8913;SDS011;4492;48.736;9.092;2022-12-28T13:26:21;3.87;;;0.80;;
8913;SDS011;4492;48.736;9.092;2022-12-28T13:28:59;0.93;;;0.70;;
8913;SDS011;4492;48.736;9.092;2022-12-28T13:31:37;2.50;;;0.90;;
8913;SDS011;4492;48.736;9.092;2022-12-28T13:34:05;1.63;;;0.80;;
8913;SDS011;4492;48.736;9.092;2022-12-28T13:36:45;1.27;;;0.80;;
8913;SDS011;4492;48.736;9.092;2022-12-28T13:39:25;1.40;;;1.10;;
8913;SDS011;4492;48.736;9.092;2022-12-28T13:47:00;1.83;;;1.10;;
8913;SDS011;4492;48.736;9.092;2022-12-28T13:49:37;4.50;;;1.10;;
8913;SDS011;4492;48.736;9.092;2022-12-28T13:52:08;2.10;;;0.90;;
8913;SDS011;4492;48.736;9.092;2022-12-28T13:54:36;2.47;;;1.20;;
8913;SDS011;4492;48.736;9.092;2022-12-28T13:57:03;2.90;;;0.97;;
8913;SDS011;4492;48.736;9.092;2022-12-28T13:59:31;1.83;;;1.37;;
8913;SDS011;4492;48.736;9.092;2022-12-28T14:01:59;1.87;;;1.00;;
8913;SDS011;4492;48.736;9.092;2022-12-28T14:04:27;3.17;;;1.40;;
8913;SDS011;4492;48.736;9.092;2022-12-28T14:06:54;1.73;;;1.10;;
8913;SDS011;4492;48.736;9.092;2022-12-28T14:09:20;1.63;;;0.93;;
8913;SDS011;4492;48.736;9.092;2022-12-28T14:11:45;0.90;;;0.90;;
8913;SDS011;4492;48.736;9.092;2022-12-28T14:14:13;1.30;;;1.00;;
8913;SDS011;4492;48.736;9.092;2022-12-28T14:16:40;1.73;;;1.00;;
8913;SDS011;4492;48.736;9.092;2022-12-28T14:19:07;1.27;;;1.07;;
8913;SDS011;4492;48.736;9.092;2022-12-28T14:21:39;5.30;;;1.73;;
8913;SDS011;4492;48.736;9.092;2022-12-28T14:24:13;1.83;;;0.90;;
8913;SDS011;4492;48.736;9.092;2022-12-28T14:27:01;2.93;;;1.00;;
8913;SDS011;4492;48.736;9.092;2022-12-28T14:29:27;2.23;;;0.90;;
8913;SDS011;4492;48.736;9.092;2022-12-28T14:31:59;1.27;;;0.73;;
8913;SDS011;4492;48.736;9.092;2022-12-28T14:34:29;1.10;;;0.83;;
8913;SDS011;4492;48.736;9.092;2022-12-28T14:36:57;1.30;;;1.00;;
8913;SDS011;4492;48.736;9.092;2022-12-28T14:41:55;2.83;;;2.10;;
8913;SDS011;4492;48.736;9.092;2022-12-28T14:44:29;1.30;;;0.80;;
8913;SDS011;4492;48.736;9.092;2022-12-28T14:47:29;1.60;;;0.80;;
8913;SDS011;4492;48.736;9.092;2022-12-28T14:49:57;1.27;;;1.00;;
8913;SDS011;4492;48.736;9.092;2022-12-28T14:52:28;0.70;;;0.70;;
8913;SDS011;4492;48.736;9.092;2022-12-28T14:54:57;2.07;;;0.97;;
8913;SDS011;4492;48.736;9.092;2022-12-28T14:57:29;1.23;;;1.00;;
8913;SDS011;4492;48.736;9.092;2022-12-28T14:59:57;2.53;;;0.90;;
8913;SDS011;4492;48.736;9.092;2022-12-28T15:04:57;1.40;;;1.00;;
8913;SDS011;4492;48.736;9.092;2022-12-28T15:07:23;1.37;;;0.90;;
8913;SDS011;4492;48.736;9.092;2022-12-28T15:09:49;17.07;;;6.63;;
8913;SDS011;4492;48.736;9.092;2022-12-28T15:12:16;0.70;;;0.70;;
8913;SDS011;4492;48.736;9.092;2022-12-28T15:14:47;2.00;;;1.10;;
8913;SDS011;4492;48.736;9.092;2022-12-28T15:17:14;2.17;;;0.90;;
8913;SDS011;4492;48.736;9.092;2022-12-28T15:19:40;2.03;;;0.97;;
8913;SDS011;4492;48.736;9.092;2022-12-28T15:22:07;1.70;;;1.10;;
8913;SDS011;4492;48.736;9.092;2022-12-28T15:24:33;2.13;;;1.13;;
8913;SDS011;4492;48.736;9.092;2022-12-28T15:27:02;4.93;;;1.20;;
8913;SDS011;4492;48.736;9.092;2022-12-28T15:29:28;1.67;;;1.20;;
8913;SDS011;4492;48.736;9.092;2022-12-28T15:31:54;3.43;;;1.60;;
8913;SDS011;4492;48.736;9.092;2022-12-28T15:34:20;4.10;;;1.40;;
8913;SDS011;4492;48.736;9.092;2022-12-28T15:36:46;2.50;;;1.10;;
8913;SDS011;4492;48.736;9.092;2022-12-28T15:39:12;5.33;;;1.50;;
8913;SDS011;4492;48.736;9.092;2022-12-28T15:41:38;2.00;;;1.27;;
8913;SDS011;4492;48.736;9.092;2022-12-28T15:44:11;1.83;;;1.53;;
8913;SDS011;4492;48.736;9.092;2022-12-28T15:46:40;2.90;;;1.50;;
8913;SDS011;4492;48.736;9.092;2022-12-28T15:49:08;4.00;;;1.80;;
8913;SDS011;4492;48.736;9.092;2022-12-28T15:51:35;3.53;;;1.73;;
8913;SDS011;4492;48.736;9.092;2022-12-28T15:54:01;2.40;;;1.60;;
8913;SDS011;4492;48.736;9.092;2022-12-28T15:56:29;1.90;;;1.67;;
8913;SDS011;4492;48.736;9.092;2022-12-28T15:58:57;2.90;;;1.80;;
8913;SDS011;4492;48.736;9.092;2022-12-28T16:01:24;1.90;;;1.20;;
8913;SDS011;4492;48.736;9.092;2022-12-28T16:03:51;1.93;;;1.50;;
8913;SDS011;4492;48.736;9.092;2022-12-28T16:06:20;3.10;;;1.50;;
8913;SDS011;4492;48.736;9.092;2022-12-28T16:08:46;2.37;;;1.37;;
8913;SDS011;4492;48.736;9.092;2022-12-28T16:11:16;2.63;;;1.70;;
8913;SDS011;4492;48.736;9.092;2022-12-28T16:13:43;2.37;;;1.53;;
8913;SDS011;4492;48.736;9.092;2022-12-28T16:16:14;1.63;;;1.53;;
8913;SDS011;4492;48.736;9.092;2022-12-28T16:18:40;3.83;;;1.70;;
8913;SDS011;4492;48.736;9.092;2022-12-28T16:21:07;4.53;;;1.63;;
8913;SDS011;4492;48.736;9.092;2022-12-28T16:23:35;2.43;;;1.60;;
8913;SDS011;4492;48.736;9.092;2022-12-28T16:26:02;1.80;;;1.37;;
8913;SDS011;4492;48.736;9.092;2022-12-28T16:28:28;2.13;;;1.47;;
8913;SDS011;4492;48.736;9.092;2022-12-28T16:30:54;2.50;;;1.33;;
8913;SDS011;4492;48.736;9.092;2022-12-28T16:33:23;2.03;;;1.57;;
8913;SDS011;4492;48.736;9.092;2022-12-28T16:35:49;2.17;;;1.83;;
8913;SDS011;4492;48.736;9.092;2022-12-28T16:38:16;5.07;;;3.10;;
8913;SDS011;4492;48.736;9.092;2022-12-28T16:40:46;6.00;;;1.67;;
8913;SDS011;4492;48.736;9.092;2022-12-28T16:43:13;2.90;;;1.30;;
8913;SDS011;4492;48.736;9.092;2022-12-28T16:45:40;2.03;;;1.50;;
8913;SDS011;4492;48.736;9.092;2022-12-28T16:48:08;2.13;;;1.67;;
8913;SDS011;4492;48.736;9.092;2022-12-28T16:50:36;2.37;;;1.70;;
8913;SDS011;4492;48.736;9.092;2022-12-28T16:53:02;2.57;;;1.60;;
8913;SDS011;4492;48.736;9.092;2022-12-28T16:55:30;1.60;;;1.50;;
8913;SDS011;4492;48.736;9.092;2022-12-28T16:57:57;2.37;;;1.60;;
8913;SDS011;4492;48.736;9.092;2022-12-28T17:00:23;3.17;;;2.60;;
8913;SDS011;4492;48.736;9.092;2022-12-28T17:02:49;2.03;;;1.80;;
8913;SDS011;4492;48.736;9.092;2022-12-28T17:05:15;2.77;;;1.30;;
8913;SDS011;4492;48.736;9.092;2022-12-28T17:07:44;1.47;;;1.37;;
8913;SDS011;4492;48.736;9.092;2022-12-28T17:10:11;2.97;;;1.87;;
8913;SDS011;4492;48.736;9.092;2022-12-28T17:12:40;2.80;;;1.40;;
8913;SDS011;4492;48.736;9.092;2022-12-28T17:15:06;2.20;;;1.30;;
8913;SDS011;4492;48.736;9.092;2022-12-28T17:17:32;2.83;;;1.57;;